sensor_id;sensor_type;location;lat;lon;timestamp;P1;durP1;ratioP1;P2;durP2;ratioP2
18716;SDS011;9487;50.892;6.906;2023-08-06T00:01:34;4.37;;;2.90;;
18716;SDS011;9487;50.892;6.906;2023-08-06T00:04:01;2.97;;;2.63;;
18716;SDS011;9487;50.892;6.906;2023-08-06T00:06:30;3.17;;;2.50;;
18716;SDS011;9487;50.892;6.906;2023-08-06T00:08:58;3.03;;;2.73;;
18716;SDS011;9487;50.892;6.906;2023-08-06T00:11:25;3.00;;;2.67;;
18716;SDS011;9487;50.892;6.906;2023-08-06T00:13:53;3.10;;;2.50;;
18716;SDS011;9487;50.892;6.906;2023-08-06T00:16:21;2.43;;;2.20;;
18716;SDS011;9487;50.892;6.906;2023-08-06T00:18:48;2.90;;;1.90;;
18716;SDS011;9487;50.892;6.906;2023-08-06T00:21:15;2.40;;;2.00;;
18716;SDS011;9487;50.892;6.906;2023-08-06T00:23:43;3.17;;;2.23;;
18716;SDS011;9487;50.892;6.906;2023-08-06T00:26:10;2.50;;;2.13;;
18716;SDS011;9487;50.892;6.906;2023-08-06T00:28:38;3.40;;;2.50;;
18716;SDS011;9487;50.892;6.906;2023-08-06T00:31:05;2.53;;;2.07;;
18716;SDS011;9487;50.892;6.906;2023-08-06T00:33:32;2.50;;;2.30;;
18716;SDS011;9487;50.892;6.906;2023-08-06T00:36:00;2.90;;;2.60;;
18716;SDS011;9487;50.892;6.906;2023-08-06T00:38:27;3.03;;;2.70;;
18716;SDS011;9487;50.892;6.906;2023-08-06T00:40:55;3.67;;;3.23;;
18716;SDS011;9487;50.892;6.906;2023-08-06T00:43:22;4.77;;;3.00;;
18716;SDS011;9487;50.892;6.906;2023-08-06T00:45:55;3.17;;;2.87;;
18716;SDS011;9487;50.892;6.906;2023-08-06T00:48:22;4.33;;;3.30;;
18716;SDS011;9487;50.892;6.906;2023-08-06T00:50:49;4.23;;;2.50;;
18716;SDS011;9487;50.892;6.906;2023-08-06T00:53:16;3.03;;;2.50;;
18716;SDS011;9487;50.892;6.906;2023-08-06T00:55:45;2.60;;;2.40;;
18716;SDS011;9487;50.892;6.906;2023-08-06T00:58:14;3.07;;;2.37;;
18716;SDS011;9487;50.892;6.906;2023-08-06T01:00:43;3.97;;;2.83;;
18716;SDS011;9487;50.892;6.906;2023-08-06T01:03:12;3.00;;;2.43;;
18716;SDS011;9487;50.892;6.906;2023-08-06T01:05:41;2.97;;;2.43;;
18716;SDS011;9487;50.892;6.906;2023-08-06T01:08:19;3.07;;;2.40;;
18716;SDS011;9487;50.892;6.906;2023-08-06T01:11:00;3.37;;;2.83;;
18716;SDS011;9487;50.892;6.906;2023-08-06T01:13:37;3.13;;;2.90;;
18716;SDS011;9487;50.892;6.906;2023-08-06T01:16:11;4.73;;;2.87;;
18716;SDS011;9487;50.892;6.906;2023-08-06T01:18:50;2.90;;;2.60;;
18716;SDS011;9487;50.892;6.906;2023-08-06T01:21:18;4.23;;;2.93;;
18716;SDS011;9487;50.892;6.906;2023-08-06T01:23:46;2.90;;;2.70;;
18716;SDS011;9487;50.892;6.906;2023-08-06T01:26:15;2.83;;;2.53;;
18716;SDS011;9487;50.892;6.906;2023-08-06T01:28:51;4.10;;;2.90;;
18716;SDS011;9487;50.892;6.906;2023-08-06T01:31:24;2.93;;;2.63;;
18716;SDS011;9487;50.892;6.906;2023-08-06T01:33:53;2.83;;;2.40;;
18716;SDS011;9487;50.892;6.906;2023-08-06T01:36:25;3.33;;;2.70;;
18716;SDS011;9487;50.892;6.906;2023-08-06T01:38:54;4.77;;;3.03;;
18716;SDS011;9487;50.892;6.906;2023-08-06T01:41:23;5.40;;;2.80;;
18716;SDS011;9487;50.892;6.906;2023-08-06T01:43:51;3.30;;;2.43;;
18716;SDS011;9487;50.892;6.906;2023-08-06T01:46:18;2.93;;;2.60;;
18716;SDS011;9487;50.892;6.906;2023-08-06T01:48:46;3.07;;;2.60;;
18716;SDS011;9487;50.892;6.906;2023-08-06T01:51:13;3.57;;;3.00;;
18716;SDS011;9487;50.892;6.906;2023-08-06T01:53:43;3.17;;;2.50;;
18716;SDS011;9487;50.892;6.906;2023-08-06T01:56:10;2.40;;;2.20;;
18716;SDS011;9487;50.892;6.906;2023-08-06T01:58:38;3.27;;;2.50;;
18716;SDS011;9487;50.892;6.906;2023-08-06T02:01:05;3.63;;;2.70;;
18716;SDS011;9487;50.892;6.906;2023-08-06T02:03:32;2.50;;;2.30;;
18716;SDS011;9487;50.892;6.906;2023-08-06T02:05:59;5.50;;;2.70;;
18716;SDS011;9487;50.892;6.906;2023-08-06T02:08:27;3.10;;;2.57;;
18716;SDS011;9487;50.892;6.906;2023-08-06T02:10:55;3.30;;;2.70;;
18716;SDS011;9487;50.892;6.906;2023-08-06T02:13:22;4.03;;;2.70;;
18716;SDS011;9487;50.892;6.906;2023-08-06T02:15:51;2.70;;;2.50;;
18716;SDS011;9487;50.892;6.906;2023-08-06T02:18:19;2.63;;;2.43;;
18716;SDS011;9487;50.892;6.906;2023-08-06T02:20:54;2.87;;;2.60;;
18716;SDS011;9487;50.892;6.906;2023-08-06T02:23:23;4.00;;;2.40;;
18716;SDS011;9487;50.892;6.906;2023-08-06T02:26:00;3.90;;;2.53;;
18716;SDS011;9487;50.892;6.906;2023-08-06T02:28:28;2.60;;;2.40;;
18716;SDS011;9487;50.892;6.906;2023-08-06T02:30:58;3.07;;;2.73;;
18716;SDS011;9487;50.892;6.906;2023-08-06T02:33:25;4.97;;;2.73;;
18716;SDS011;9487;50.892;6.906;2023-08-06T02:35:58;3.90;;;2.60;;
18716;SDS011;9487;50.892;6.906;2023-08-06T02:38:26;3.33;;;2.97;;
18716;SDS011;9487;50.892;6.906;2023-08-06T02:40:56;3.50;;;3.20;;
18716;SDS011;9487;50.892;6.906;2023-08-06T02:43:24;3.57;;;3.07;;
18716;SDS011;9487;50.892;6.906;2023-08-06T02:45:52;2.80;;;2.60;;
18716;SDS011;9487;50.892;6.906;2023-08-06T02:48:22;3.17;;;2.80;;
18716;SDS011;9487;50.892;6.906;2023-08-06T02:50:51;3.60;;;2.77;;
18716;SDS011;9487;50.892;6.906;2023-08-06T02:53:18;4.50;;;3.00;;
18716;SDS011;9487;50.892;6.906;2023-08-06T02:55:46;3.33;;;2.73;;
18716;SDS011;9487;50.892;6.906;2023-08-06T02:58:14;2.80;;;2.60;;
18716;SDS011;9487;50.892;6.906;2023-08-06T03:00:50;3.03;;;2.60;;
18716;SDS011;9487;50.892;6.906;2023-08-06T03:03:26;3.27;;;2.47;;
18716;SDS011;9487;50.892;6.906;2023-08-06T03:05:53;3.37;;;3.07;;
18716;SDS011;9487;50.892;6.906;2023-08-06T03:08:21;3.07;;;2.17;;
18716;SDS011;9487;50.892;6.906;2023-08-06T03:10:51;2.57;;;2.30;;
18716;SDS011;9487;50.892;6.906;2023-08-06T03:13:20;2.50;;;2.30;;
18716;SDS011;9487;50.892;6.906;2023-08-06T03:15:55;3.00;;;2.30;;
18716;SDS011;9487;50.892;6.906;2023-08-06T03:18:23;2.63;;;2.43;;
18716;SDS011;9487;50.892;6.906;2023-08-06T03:20:51;2.87;;;2.57;;
18716;SDS011;9487;50.892;6.906;2023-08-06T03:23:19;3.23;;;2.30;;
18716;SDS011;9487;50.892;6.906;2023-08-06T03:25:46;2.30;;;2.10;;
18716;SDS011;9487;50.892;6.906;2023-08-06T03:28:14;3.23;;;2.10;;
18716;SDS011;9487;50.892;6.906;2023-08-06T03:30:45;2.40;;;1.80;;
18716;SDS011;9487;50.892;6.906;2023-08-06T03:33:17;4.03;;;2.20;;
18716;SDS011;9487;50.892;6.906;2023-08-06T03:35:44;2.93;;;2.10;;
18716;SDS011;9487;50.892;6.906;2023-08-06T03:38:11;3.97;;;2.30;;
18716;SDS011;9487;50.892;6.906;2023-08-06T03:40:41;2.50;;;2.30;;
18716;SDS011;9487;50.892;6.906;2023-08-06T03:43:08;3.73;;;2.80;;
18716;SDS011;9487;50.892;6.906;2023-08-06T03:45:35;3.43;;;3.10;;
18716;SDS011;9487;50.892;6.906;2023-08-06T03:48:03;4.13;;;3.10;;
18716;SDS011;9487;50.892;6.906;2023-08-06T03:50:35;3.63;;;2.90;;
18716;SDS011;9487;50.892;6.906;2023-08-06T03:53:03;3.67;;;3.13;;
18716;SDS011;9487;50.892;6.906;2023-08-06T03:55:30;3.90;;;3.17;;
18716;SDS011;9487;50.892;6.906;2023-08-06T03:57:56;3.73;;;3.23;;
18716;SDS011;9487;50.892;6.906;2023-08-06T04:00:24;3.57;;;3.27;;
18716;SDS011;9487;50.892;6.906;2023-08-06T04:02:51;3.77;;;3.40;;
18716;SDS011;9487;50.892;6.906;2023-08-06T04:05:19;5.50;;;3.30;;
18716;SDS011;9487;50.892;6.906;2023-08-06T04:07:47;4.23;;;3.30;;
18716;SDS011;9487;50.892;6.906;2023-08-06T04:10:17;4.80;;;3.30;;
18716;SDS011;9487;50.892;6.906;2023-08-06T04:12:44;4.13;;;3.40;;
18716;SDS011;9487;50.892;6.906;2023-08-06T04:15:11;3.77;;;3.17;;
18716;SDS011;9487;50.892;6.906;2023-08-06T04:17:38;3.63;;;3.30;;
18716;SDS011;9487;50.892;6.906;2023-08-06T04:20:06;4.20;;;3.10;;
18716;SDS011;9487;50.892;6.906;2023-08-06T04:22:35;4.53;;;3.13;;
18716;SDS011;9487;50.892;6.906;2023-08-06T04:25:04;3.93;;;3.53;;
18716;SDS011;9487;50.892;6.906;2023-08-06T04:27:32;3.70;;;3.27;;
18716;SDS011;9487;50.892;6.906;2023-08-06T04:29:59;4.00;;;3.37;;
18716;SDS011;9487;50.892;6.906;2023-08-06T04:32:27;6.83;;;3.57;;
18716;SDS011;9487;50.892;6.906;2023-08-06T04:34:55;3.27;;;2.93;;
18716;SDS011;9487;50.892;6.906;2023-08-06T04:37:25;5.13;;;3.63;;
18716;SDS011;9487;50.892;6.906;2023-08-06T04:39:52;4.40;;;3.40;;
18716;SDS011;9487;50.892;6.906;2023-08-06T04:42:21;5.03;;;3.40;;
18716;SDS011;9487;50.892;6.906;2023-08-06T04:44:49;4.43;;;3.90;;
18716;SDS011;9487;50.892;6.906;2023-08-06T04:47:16;5.57;;;3.57;;
18716;SDS011;9487;50.892;6.906;2023-08-06T04:49:43;4.00;;;3.43;;
18716;SDS011;9487;50.892;6.906;2023-08-06T04:52:10;6.80;;;3.83;;
18716;SDS011;9487;50.892;6.906;2023-08-06T04:54:37;3.53;;;3.23;;
18716;SDS011;9487;50.892;6.906;2023-08-06T04:57:04;7.20;;;4.07;;
18716;SDS011;9487;50.892;6.906;2023-08-06T04:59:33;4.13;;;3.60;;
18716;SDS011;9487;50.892;6.906;2023-08-06T05:02:01;4.07;;;3.67;;
18716;SDS011;9487;50.892;6.906;2023-08-06T05:04:29;5.40;;;3.73;;
18716;SDS011;9487;50.892;6.906;2023-08-06T05:06:56;7.33;;;3.90;;
18716;SDS011;9487;50.892;6.906;2023-08-06T05:09:23;4.87;;;3.50;;
18716;SDS011;9487;50.892;6.906;2023-08-06T05:11:50;5.77;;;3.60;;
18716;SDS011;9487;50.892;6.906;2023-08-06T05:14:17;5.47;;;3.50;;
18716;SDS011;9487;50.892;6.906;2023-08-06T05:16:46;3.77;;;3.43;;
18716;SDS011;9487;50.892;6.906;2023-08-06T05:19:13;4.93;;;3.67;;
18716;SDS011;9487;50.892;6.906;2023-08-06T05:21:41;3.37;;;3.00;;
18716;SDS011;9487;50.892;6.906;2023-08-06T05:24:08;3.97;;;3.57;;
18716;SDS011;9487;50.892;6.906;2023-08-06T05:26:35;5.50;;;3.43;;
18716;SDS011;9487;50.892;6.906;2023-08-06T05:29:02;3.87;;;3.57;;
18716;SDS011;9487;50.892;6.906;2023-08-06T05:31:32;4.47;;;3.30;;
18716;SDS011;9487;50.892;6.906;2023-08-06T05:34:00;5.27;;;3.60;;
18716;SDS011;9487;50.892;6.906;2023-08-06T05:36:28;3.57;;;3.27;;
18716;SDS011;9487;50.892;6.906;2023-08-06T05:38:55;4.17;;;3.63;;
18716;SDS011;9487;50.892;6.906;2023-08-06T05:41:22;4.40;;;3.00;;
18716;SDS011;9487;50.892;6.906;2023-08-06T05:43:52;5.30;;;3.30;;
18716;SDS011;9487;50.892;6.906;2023-08-06T05:46:18;6.03;;;2.77;;
18716;SDS011;9487;50.892;6.906;2023-08-06T05:48:46;4.53;;;2.50;;
18716;SDS011;9487;50.892;6.906;2023-08-06T05:51:14;2.97;;;2.30;;
18716;SDS011;9487;50.892;6.906;2023-08-06T05:53:42;3.83;;;2.63;;
18716;SDS011;9487;50.892;6.906;2023-08-06T05:56:10;3.97;;;2.60;;
18716;SDS011;9487;50.892;6.906;2023-08-06T05:58:39;4.10;;;2.60;;
18716;SDS011;9487;50.892;6.906;2023-08-06T06:01:07;4.43;;;2.50;;
18716;SDS011;9487;50.892;6.906;2023-08-06T06:03:34;2.97;;;2.67;;
18716;SDS011;9487;50.892;6.906;2023-08-06T06:06:01;3.80;;;2.40;;
18716;SDS011;9487;50.892;6.906;2023-08-06T06:08:31;3.57;;;2.40;;
18716;SDS011;9487;50.892;6.906;2023-08-06T06:11:03;2.23;;;1.93;;
18716;SDS011;9487;50.892;6.906;2023-08-06T06:13:30;2.47;;;1.97;;
18716;SDS011;9487;50.892;6.906;2023-08-06T06:15:57;2.37;;;2.10;;
18716;SDS011;9487;50.892;6.906;2023-08-06T06:18:24;3.00;;;1.97;;
18716;SDS011;9487;50.892;6.906;2023-08-06T06:20:52;2.07;;;1.87;;
18716;SDS011;9487;50.892;6.906;2023-08-06T06:23:19;3.30;;;1.80;;
18716;SDS011;9487;50.892;6.906;2023-08-06T06:25:51;3.17;;;1.90;;
18716;SDS011;9487;50.892;6.906;2023-08-06T06:28:18;2.07;;;1.87;;
18716;SDS011;9487;50.892;6.906;2023-08-06T06:30:49;2.83;;;1.83;;
18716;SDS011;9487;50.892;6.906;2023-08-06T06:33:17;3.40;;;1.73;;
18716;SDS011;9487;50.892;6.906;2023-08-06T06:35:46;1.40;;;1.30;;
18716;SDS011;9487;50.892;6.906;2023-08-06T06:38:12;2.47;;;1.40;;
18716;SDS011;9487;50.892;6.906;2023-08-06T06:40:39;3.13;;;1.43;;
18716;SDS011;9487;50.892;6.906;2023-08-06T06:43:08;1.23;;;1.13;;
18716;SDS011;9487;50.892;6.906;2023-08-06T06:45:35;2.63;;;1.50;;
18716;SDS011;9487;50.892;6.906;2023-08-06T06:48:02;1.20;;;1.10;;
18716;SDS011;9487;50.892;6.906;2023-08-06T06:50:31;1.93;;;1.30;;
18716;SDS011;9487;50.892;6.906;2023-08-06T06:52:59;3.90;;;1.53;;
18716;SDS011;9487;50.892;6.906;2023-08-06T06:55:28;2.33;;;1.47;;
18716;SDS011;9487;50.892;6.906;2023-08-06T06:57:55;2.70;;;1.40;;
18716;SDS011;9487;50.892;6.906;2023-08-06T07:00:24;1.83;;;1.63;;
18716;SDS011;9487;50.892;6.906;2023-08-06T07:02:51;1.67;;;1.40;;
18716;SDS011;9487;50.892;6.906;2023-08-06T07:05:18;1.83;;;1.53;;
18716;SDS011;9487;50.892;6.906;2023-08-06T07:07:45;1.83;;;1.37;;
18716;SDS011;9487;50.892;6.906;2023-08-06T07:10:12;2.27;;;1.27;;
18716;SDS011;9487;50.892;6.906;2023-08-06T07:12:39;1.87;;;1.70;;
18716;SDS011;9487;50.892;6.906;2023-08-06T07:15:06;2.00;;;1.80;;
18716;SDS011;9487;50.892;6.906;2023-08-06T07:17:35;2.10;;;1.83;;
18716;SDS011;9487;50.892;6.906;2023-08-06T07:20:02;2.73;;;1.70;;
18716;SDS011;9487;50.892;6.906;2023-08-06T07:22:29;1.80;;;1.70;;
18716;SDS011;9487;50.892;6.906;2023-08-06T07:24:56;2.07;;;1.70;;
18716;SDS011;9487;50.892;6.906;2023-08-06T07:27:23;3.73;;;1.80;;
18716;SDS011;9487;50.892;6.906;2023-08-06T07:29:51;1.57;;;1.43;;
18716;SDS011;9487;50.892;6.906;2023-08-06T07:32:18;3.07;;;1.93;;
18716;SDS011;9487;50.892;6.906;2023-08-06T07:34:46;3.83;;;2.20;;
18716;SDS011;9487;50.892;6.906;2023-08-06T07:37:13;2.70;;;1.83;;
18716;SDS011;9487;50.892;6.906;2023-08-06T07:39:40;2.03;;;1.77;;
18716;SDS011;9487;50.892;6.906;2023-08-06T07:42:08;2.10;;;1.63;;
18716;SDS011;9487;50.892;6.906;2023-08-06T07:44:36;2.37;;;1.80;;
18716;SDS011;9487;50.892;6.906;2023-08-06T07:47:03;2.60;;;1.80;;
18716;SDS011;9487;50.892;6.906;2023-08-06T07:49:31;2.50;;;1.70;;
18716;SDS011;9487;50.892;6.906;2023-08-06T07:51:59;2.23;;;2.03;;
18716;SDS011;9487;50.892;6.906;2023-08-06T07:54:26;2.00;;;1.80;;
18716;SDS011;9487;50.892;6.906;2023-08-06T07:56:53;4.40;;;2.10;;
18716;SDS011;9487;50.892;6.906;2023-08-06T07:59:20;3.13;;;1.87;;
18716;SDS011;9487;50.892;6.906;2023-08-06T08:01:47;2.63;;;2.00;;
18716;SDS011;9487;50.892;6.906;2023-08-06T08:04:14;2.27;;;2.17;;
18716;SDS011;9487;50.892;6.906;2023-08-06T08:06:41;2.47;;;2.27;;
18716;SDS011;9487;50.892;6.906;2023-08-06T08:09:09;2.50;;;2.20;;
18716;SDS011;9487;50.892;6.906;2023-08-06T08:11:36;2.73;;;2.10;;
18716;SDS011;9487;50.892;6.906;2023-08-06T08:14:03;3.87;;;2.40;;
18716;SDS011;9487;50.892;6.906;2023-08-06T08:16:29;3.00;;;2.30;;
18716;SDS011;9487;50.892;6.906;2023-08-06T08:18:56;2.60;;;2.40;;
18716;SDS011;9487;50.892;6.906;2023-08-06T08:21:23;2.70;;;2.50;;
18716;SDS011;9487;50.892;6.906;2023-08-06T08:23:51;2.00;;;1.90;;
18716;SDS011;9487;50.892;6.906;2023-08-06T08:26:19;5.27;;;2.30;;
18716;SDS011;9487;50.892;6.906;2023-08-06T08:28:46;2.47;;;2.27;;
18716;SDS011;9487;50.892;6.906;2023-08-06T08:31:13;2.20;;;2.00;;
18716;SDS011;9487;50.892;6.906;2023-08-06T08:33:41;2.00;;;1.90;;
18716;SDS011;9487;50.892;6.906;2023-08-06T08:36:08;2.00;;;1.73;;
18716;SDS011;9487;50.892;6.906;2023-08-06T08:38:35;3.13;;;1.80;;
18716;SDS011;9487;50.892;6.906;2023-08-06T08:41:02;2.50;;;1.63;;
18716;SDS011;9487;50.892;6.906;2023-08-06T08:43:30;1.80;;;1.70;;
18716;SDS011;9487;50.892;6.906;2023-08-06T08:45:58;2.80;;;2.10;;
18716;SDS011;9487;50.892;6.906;2023-08-06T08:48:28;2.10;;;1.70;;
18716;SDS011;9487;50.892;6.906;2023-08-06T08:50:55;1.60;;;1.50;;
18716;SDS011;9487;50.892;6.906;2023-08-06T08:53:22;3.40;;;1.80;;
18716;SDS011;9487;50.892;6.906;2023-08-06T08:55:49;2.07;;;1.40;;
18716;SDS011;9487;50.892;6.906;2023-08-06T08:58:16;1.77;;;1.40;;
18716;SDS011;9487;50.892;6.906;2023-08-06T09:00:45;1.53;;;1.30;;
18716;SDS011;9487;50.892;6.906;2023-08-06T09:03:13;2.20;;;1.40;;
18716;SDS011;9487;50.892;6.906;2023-08-06T09:05:41;1.53;;;1.40;;
18716;SDS011;9487;50.892;6.906;2023-08-06T09:08:11;1.77;;;1.43;;
18716;SDS011;9487;50.892;6.906;2023-08-06T09:10:41;1.50;;;1.27;;
18716;SDS011;9487;50.892;6.906;2023-08-06T09:13:09;1.63;;;1.50;;
18716;SDS011;9487;50.892;6.906;2023-08-06T09:15:37;1.73;;;1.53;;
18716;SDS011;9487;50.892;6.906;2023-08-06T09:18:10;2.07;;;1.70;;
18716;SDS011;9487;50.892;6.906;2023-08-06T09:20:38;2.10;;;1.90;;
18716;SDS011;9487;50.892;6.906;2023-08-06T09:23:08;1.90;;;1.80;;
18716;SDS011;9487;50.892;6.906;2023-08-06T09:25:37;1.90;;;1.70;;
18716;SDS011;9487;50.892;6.906;2023-08-06T09:28:06;2.20;;;1.93;;
18716;SDS011;9487;50.892;6.906;2023-08-06T09:30:33;2.90;;;2.33;;
18716;SDS011;9487;50.892;6.906;2023-08-06T09:33:01;3.13;;;2.93;;
18716;SDS011;9487;50.892;6.906;2023-08-06T09:35:30;2.90;;;2.70;;
18716;SDS011;9487;50.892;6.906;2023-08-06T09:38:04;3.00;;;2.70;;
18716;SDS011;9487;50.892;6.906;2023-08-06T09:40:33;3.10;;;2.90;;
18716;SDS011;9487;50.892;6.906;2023-08-06T09:43:00;3.20;;;2.90;;
18716;SDS011;9487;50.892;6.906;2023-08-06T09:45:28;3.90;;;3.53;;
18716;SDS011;9487;50.892;6.906;2023-08-06T09:47:57;3.93;;;3.63;;
18716;SDS011;9487;50.892;6.906;2023-08-06T09:50:26;4.20;;;3.80;;
18716;SDS011;9487;50.892;6.906;2023-08-06T09:52:57;4.53;;;4.13;;
18716;SDS011;9487;50.892;6.906;2023-08-06T09:55:24;5.70;;;5.30;;
18716;SDS011;9487;50.892;6.906;2023-08-06T09:57:52;5.53;;;5.03;;
18716;SDS011;9487;50.892;6.906;2023-08-06T10:00:19;5.80;;;5.30;;
18716;SDS011;9487;50.892;6.906;2023-08-06T10:02:46;4.17;;;3.87;;
18716;SDS011;9487;50.892;6.906;2023-08-06T10:05:15;2.67;;;2.47;;
18716;SDS011;9487;50.892;6.906;2023-08-06T10:07:43;2.03;;;1.60;;
18716;SDS011;9487;50.892;6.906;2023-08-06T10:10:11;1.53;;;1.43;;
18716;SDS011;9487;50.892;6.906;2023-08-06T10:12:39;2.80;;;0.80;;
18716;SDS011;9487;50.892;6.906;2023-08-06T10:15:10;2.20;;;0.77;;
18716;SDS011;9487;50.892;6.906;2023-08-06T10:17:40;1.47;;;0.90;;
18716;SDS011;9487;50.892;6.906;2023-08-06T10:20:08;0.90;;;0.70;;
18716;SDS011;9487;50.892;6.906;2023-08-06T10:22:36;1.03;;;0.70;;
18716;SDS011;9487;50.892;6.906;2023-08-06T10:25:04;1.13;;;1.03;;
18716;SDS011;9487;50.892;6.906;2023-08-06T10:27:33;1.30;;;1.20;;
18716;SDS011;9487;50.892;6.906;2023-08-06T10:32:50;1.53;;;1.40;;
18716;SDS011;9487;50.892;6.906;2023-08-06T10:35:29;2.07;;;1.60;;
18716;SDS011;9487;50.892;6.906;2023-08-06T10:37:58;2.63;;;1.50;;
18716;SDS011;9487;50.892;6.906;2023-08-06T10:40:27;2.90;;;1.97;;
18716;SDS011;9487;50.892;6.906;2023-08-06T10:42:55;3.10;;;2.27;;
18716;SDS011;9487;50.892;6.906;2023-08-06T10:45:24;3.27;;;2.27;;
18716;SDS011;9487;50.892;6.906;2023-08-06T10:47:54;3.07;;;2.30;;
18716;SDS011;9487;50.892;6.906;2023-08-06T10:50:21;2.53;;;2.33;;
18716;SDS011;9487;50.892;6.906;2023-08-06T10:52:48;2.83;;;2.20;;
18716;SDS011;9487;50.892;6.906;2023-08-06T10:55:22;2.37;;;1.90;;
18716;SDS011;9487;50.892;6.906;2023-08-06T10:57:51;3.60;;;2.03;;
18716;SDS011;9487;50.892;6.906;2023-08-06T11:00:20;2.70;;;2.10;;
18716;SDS011;9487;50.892;6.906;2023-08-06T11:02:48;4.87;;;2.63;;
18716;SDS011;9487;50.892;6.906;2023-08-06T11:05:16;5.40;;;2.83;;
18716;SDS011;9487;50.892;6.906;2023-08-06T11:07:43;3.63;;;2.20;;
18716;SDS011;9487;50.892;6.906;2023-08-06T11:10:11;3.13;;;2.23;;
18716;SDS011;9487;50.892;6.906;2023-08-06T11:12:39;3.43;;;2.50;;
18716;SDS011;9487;50.892;6.906;2023-08-06T11:15:08;3.90;;;2.10;;
18716;SDS011;9487;50.892;6.906;2023-08-06T11:17:36;5.00;;;2.47;;
18716;SDS011;9487;50.892;6.906;2023-08-06T11:20:06;4.07;;;2.30;;
18716;SDS011;9487;50.892;6.906;2023-08-06T11:22:33;4.00;;;2.53;;
18716;SDS011;9487;50.892;6.906;2023-08-06T11:25:02;2.73;;;1.63;;
18716;SDS011;9487;50.892;6.906;2023-08-06T11:27:29;2.80;;;2.10;;
18716;SDS011;9487;50.892;6.906;2023-08-06T11:29:56;3.83;;;2.33;;
18716;SDS011;9487;50.892;6.906;2023-08-06T11:32:24;4.53;;;2.30;;
18716;SDS011;9487;50.892;6.906;2023-08-06T11:34:52;5.30;;;1.93;;
18716;SDS011;9487;50.892;6.906;2023-08-06T11:37:21;2.67;;;1.80;;
18716;SDS011;9487;50.892;6.906;2023-08-06T11:39:49;3.80;;;1.90;;
18716;SDS011;9487;50.892;6.906;2023-08-06T11:42:16;2.70;;;1.50;;
18716;SDS011;9487;50.892;6.906;2023-08-06T11:44:43;2.93;;;1.77;;
18716;SDS011;9487;50.892;6.906;2023-08-06T11:47:12;2.23;;;1.50;;
18716;SDS011;9487;50.892;6.906;2023-08-06T11:49:43;5.07;;;1.33;;
18716;SDS011;9487;50.892;6.906;2023-08-06T11:52:13;3.87;;;1.60;;
18716;SDS011;9487;50.892;6.906;2023-08-06T11:54:43;2.80;;;1.60;;
18716;SDS011;9487;50.892;6.906;2023-08-06T11:57:11;1.90;;;1.30;;
18716;SDS011;9487;50.892;6.906;2023-08-06T11:59:37;3.37;;;1.30;;
18716;SDS011;9487;50.892;6.906;2023-08-06T12:02:05;2.07;;;1.13;;
18716;SDS011;9487;50.892;6.906;2023-08-06T12:07:36;3.53;;;1.53;;
18716;SDS011;9487;50.892;6.906;2023-08-06T12:10:04;2.87;;;1.60;;
18716;SDS011;9487;50.892;6.906;2023-08-06T12:12:32;3.23;;;1.60;;
18716;SDS011;9487;50.892;6.906;2023-08-06T12:14:59;3.33;;;1.47;;
18716;SDS011;9487;50.892;6.906;2023-08-06T12:17:26;3.30;;;1.63;;
18716;SDS011;9487;50.892;6.906;2023-08-06T12:19:53;3.90;;;1.60;;
18716;SDS011;9487;50.892;6.906;2023-08-06T12:22:21;2.53;;;1.60;;
18716;SDS011;9487;50.892;6.906;2023-08-06T12:24:48;2.40;;;1.50;;
18716;SDS011;9487;50.892;6.906;2023-08-06T12:27:18;2.87;;;1.93;;
18716;SDS011;9487;50.892;6.906;2023-08-06T12:29:47;4.30;;;1.50;;
18716;SDS011;9487;50.892;6.906;2023-08-06T12:32:15;2.03;;;1.60;;
18716;SDS011;9487;50.892;6.906;2023-08-06T12:34:42;4.93;;;1.90;;
18716;SDS011;9487;50.892;6.906;2023-08-06T12:37:09;3.03;;;1.60;;
18716;SDS011;9487;50.892;6.906;2023-08-06T12:39:41;3.70;;;1.60;;
18716;SDS011;9487;50.892;6.906;2023-08-06T12:42:08;3.60;;;1.53;;
18716;SDS011;9487;50.892;6.906;2023-08-06T12:44:37;4.03;;;1.70;;
18716;SDS011;9487;50.892;6.906;2023-08-06T12:47:04;3.10;;;1.60;;
18716;SDS011;9487;50.892;6.906;2023-08-06T12:49:34;2.57;;;1.70;;
18716;SDS011;9487;50.892;6.906;2023-08-06T12:52:03;3.17;;;1.70;;
18716;SDS011;9487;50.892;6.906;2023-08-06T12:54:32;3.07;;;1.80;;
18716;SDS011;9487;50.892;6.906;2023-08-06T12:57:03;4.47;;;2.23;;
18716;SDS011;9487;50.892;6.906;2023-08-06T12:59:31;5.70;;;1.93;;
18716;SDS011;9487;50.892;6.906;2023-08-06T13:02:02;5.17;;;1.80;;
18716;SDS011;9487;50.892;6.906;2023-08-06T13:04:30;5.27;;;2.37;;
18716;SDS011;9487;50.892;6.906;2023-08-06T13:06:59;4.27;;;2.33;;
18716;SDS011;9487;50.892;6.906;2023-08-06T13:09:27;5.17;;;2.30;;
18716;SDS011;9487;50.892;6.906;2023-08-06T13:11:54;3.40;;;2.27;;
18716;SDS011;9487;50.892;6.906;2023-08-06T13:14:26;4.90;;;2.30;;
18716;SDS011;9487;50.892;6.906;2023-08-06T13:16:53;4.50;;;2.50;;
18716;SDS011;9487;50.892;6.906;2023-08-06T13:19:20;3.03;;;2.30;;
18716;SDS011;9487;50.892;6.906;2023-08-06T13:21:58;4.47;;;2.63;;
18716;SDS011;9487;50.892;6.906;2023-08-06T13:24:28;6.90;;;2.40;;
18716;SDS011;9487;50.892;6.906;2023-08-06T13:26:54;3.43;;;2.00;;
18716;SDS011;9487;50.892;6.906;2023-08-06T13:29:21;6.33;;;2.30;;
18716;SDS011;9487;50.892;6.906;2023-08-06T13:31:52;3.93;;;2.20;;
18716;SDS011;9487;50.892;6.906;2023-08-06T13:34:20;4.20;;;2.53;;
18716;SDS011;9487;50.892;6.906;2023-08-06T13:36:50;5.07;;;2.80;;
18716;SDS011;9487;50.892;6.906;2023-08-06T13:39:17;4.40;;;2.70;;
18716;SDS011;9487;50.892;6.906;2023-08-06T13:41:44;3.97;;;2.87;;
18716;SDS011;9487;50.892;6.906;2023-08-06T13:44:12;3.73;;;2.80;;
18716;SDS011;9487;50.892;6.906;2023-08-06T13:46:40;3.47;;;2.80;;
18716;SDS011;9487;50.892;6.906;2023-08-06T13:49:11;3.50;;;2.83;;
18716;SDS011;9487;50.892;6.906;2023-08-06T13:51:38;4.17;;;3.07;;
18716;SDS011;9487;50.892;6.906;2023-08-06T13:54:06;6.30;;;2.60;;
18716;SDS011;9487;50.892;6.906;2023-08-06T13:56:34;3.17;;;2.50;;
18716;SDS011;9487;50.892;6.906;2023-08-06T13:59:02;4.93;;;2.90;;
18716;SDS011;9487;50.892;6.906;2023-08-06T14:01:30;3.50;;;1.90;;
18716;SDS011;9487;50.892;6.906;2023-08-06T14:03:57;5.63;;;2.40;;
18716;SDS011;9487;50.892;6.906;2023-08-06T14:06:26;4.63;;;2.00;;
18716;SDS011;9487;50.892;6.906;2023-08-06T14:08:53;4.10;;;1.83;;
18716;SDS011;9487;50.892;6.906;2023-08-06T14:11:20;2.73;;;1.43;;
18716;SDS011;9487;50.892;6.906;2023-08-06T14:13:47;2.17;;;1.10;;
18716;SDS011;9487;50.892;6.906;2023-08-06T14:16:14;4.97;;;1.60;;
18716;SDS011;9487;50.892;6.906;2023-08-06T14:18:41;3.40;;;1.20;;
18716;SDS011;9487;50.892;6.906;2023-08-06T14:21:08;4.30;;;1.30;;
18716;SDS011;9487;50.892;6.906;2023-08-06T14:23:36;3.43;;;1.23;;
18716;SDS011;9487;50.892;6.906;2023-08-06T14:26:03;4.33;;;1.27;;
18716;SDS011;9487;50.892;6.906;2023-08-06T14:28:30;4.37;;;1.10;;
18716;SDS011;9487;50.892;6.906;2023-08-06T14:30:56;3.53;;;1.00;;
18716;SDS011;9487;50.892;6.906;2023-08-06T14:33:23;4.23;;;1.10;;
18716;SDS011;9487;50.892;6.906;2023-08-06T14:35:50;5.03;;;1.73;;
18716;SDS011;9487;50.892;6.906;2023-08-06T14:38:17;4.27;;;1.20;;
18716;SDS011;9487;50.892;6.906;2023-08-06T14:40:45;3.53;;;1.30;;
18716;SDS011;9487;50.892;6.906;2023-08-06T14:43:12;2.83;;;0.90;;
18716;SDS011;9487;50.892;6.906;2023-08-06T14:45:39;1.73;;;0.83;;
18716;SDS011;9487;50.892;6.906;2023-08-06T14:48:06;3.23;;;0.90;;
18716;SDS011;9487;50.892;6.906;2023-08-06T14:50:33;2.33;;;0.90;;
18716;SDS011;9487;50.892;6.906;2023-08-06T14:53:00;2.23;;;1.00;;
18716;SDS011;9487;50.892;6.906;2023-08-06T14:55:27;1.97;;;1.20;;
18716;SDS011;9487;50.892;6.906;2023-08-06T14:57:56;1.60;;;1.00;;
18716;SDS011;9487;50.892;6.906;2023-08-06T15:00:23;1.73;;;1.10;;
18716;SDS011;9487;50.892;6.906;2023-08-06T15:02:51;1.27;;;0.80;;
18716;SDS011;9487;50.892;6.906;2023-08-06T15:05:18;3.90;;;1.13;;
18716;SDS011;9487;50.892;6.906;2023-08-06T15:07:45;0.87;;;0.60;;
18716;SDS011;9487;50.892;6.906;2023-08-06T15:10:13;1.70;;;0.67;;
18716;SDS011;9487;50.892;6.906;2023-08-06T15:12:40;0.87;;;0.60;;